KNQI/NQI METAR and TAF weather

Enter ICAO airport designator
Station Type Date Time Source
KNQI METAR 2018/12/13 08:56 UTC NOAA

KNQI 130856Z AUTO 24014KT 8SM -RA BKN034 OVC050 19/18 A2986 RMK AO2 RAB18 SLP107 P0003 60003 T01940178 53011


Station Type Date Time Source
KNQI Decoded METAR 2018/12/13 08:56 UTC NOAA

KINGSVILLE NAS, TX, United States (KNQI) 27-50N 097-81W 15M
Dec 13, 2018 - 03:56 AM EST / 2018.12.13 0856 UTC
Wind: from the WSW (240 degrees) at 16 MPH (14 KT):0
Visibility: 8 mile(s):0
Sky conditions: overcast
Weather: light rain
Precipitation last hour: 0.03 inches
Temperature: 66.9 F (19.4 C)
Dew Point: 64.0 F (17.8 C)
Relative Humidity: 90%
Pressure (altimeter): 29.86 in. Hg (1011 hPa)
Pressure tendency: 0.03 inches (1.1 hPa) higher than three hours ago
ob: KNQI 130856Z AUTO 24014KT 8SM -RA BKN034 OVC050 19/18 A2986 RMK AO2 RAB18 SLP107 P0003 60003 T01940178 53011
cycle: 9

Station Type Date Time Source
KNQI TAF 2018/12/13 07:27 UTC NOAA

TAF KNQI 1307/1407 24010KT 9999 VCSH BKN020 BKN090 641009 641903 541809 542709 543202 543608 QNH2976INS
TEMPO 1308/1312 22014G20KT 4800 RA BR BKN008 BKN015 OVC025
FM131200 25010KT 6000 BR FEW008 SCT018 BKN040 BKN150 BKN250 641009 641903 541809 542709 543202 543608 QNH2980INS
TEMPO 1312/1315 2400 BR BKN006 BKN015 OVC025
FM131500 27019G27KT 9999 FEW030 SCT150 BKN250 600000 550009 541809 542709 543202 543608 QNH2982INS
TEMPO 1315/1318 28024G33KT SCT025 BKN120 BKN250
FM131800 29028G36KT 9999 FEW180 FEW250 550009 541809 542709 543202 543608 QNH2981INS
TEMPO 1318/1323 30030G45KT FEW040 FEW160 SCT250
FM140000 32025G35KT 9999 FEW250 550009 541809 542709 543202 543608 QNH2983INS
TEMPO 1400/1406 31030G40KT SKC AUTOMATED SENSOR METWATCH 1307 TIL 1313 T16/1310Z T23/1318Z FN00000


Example: see airport list